Paracatu, Brazil
Current Conditions -  °F | °C
As of 2:00 AM on Friday 19 Dec 2014 (Local Time) from SBBR Reporting Station
Few Clouds Few Clouds  
Wind Chill: 70°   Ceiling: Unl
Heat Index: 70°   Visibility: 6mi
Dew Point: 64°   Wind: 5mph
Humidity: 83%   Direction: 250°WSW
Pressure: 30"   Gusts: NA
Location:  17.2°S, 46.87°W
Report Text: SBBR 190400Z 25004KT 9999 FEW030 21/18 Q1016
Loading
Personal Weather Stations






























Interactive Weather Map New forecast layout! Learn more

10-Day Weather Forecast

Advertisements
Track Severe Weather on mobile